Latham, Kansas
Current Conditions -  °F | °C
As of 12:35 PM on Sunday 23 Nov 2014 (Local Time) from KEQA Reporting Station
Overcast Overcast  
Wind Chill: 55°   Ceiling: 2300
Heat Index: 55°   Visibility: 10mi
Dew Point: 50°   Wind: 9mph
Humidity: 82%   Direction: 330°NNW
Pressure: 29.38"   Gusts: NA
Location:  37.54°N, 96.64°W
Report Text: KEQA 231835Z AUTO 33008KT 10SM SCT011 OVC023 13/10 A2938 RMK AO2
Loading
Personal Weather Stations






























Interactive Weather Map New forecast layout! Learn more

10-Day Weather Forecast

Advertisements
Track Severe Weather on mobile